Elcho, Wisconsin
Current Conditions -  °F | °C
As of 6:33 AM on Friday 31 Oct 2014 (Local Time) from KRHI Reporting Station
Broken Clouds Broken Clouds  
Wind Chill: 16°   Ceiling: 3500
Heat Index: 27°   Visibility: 10mi
Dew Point: 21°   Wind: 14mph
Humidity: 78%   Direction: 350°N
Pressure: 30.29"   Gusts: 23mph
Location:  45.44°N, 89.18°W
Report Text: KRHI 311133Z AUTO 35012G20KT 10SM FEW021 BKN035 BKN041 M03/M06 A3029 RMK AO2 T10281061
Loading
Personal Weather Stations






























Interactive Weather Map New forecast layout! Learn more

10-Day Weather Forecast

Advertisements
Track Severe Weather on mobile